createdAt,value
2023-07-28T00:00:37.867Z,21.33
2023-07-28T00:01:37.913Z,21.33
2023-07-28T00:02:37.972Z,21.33
2023-07-28T00:03:37.938Z,21.31
2023-07-28T00:04:37.903Z,21.34
2023-07-28T00:05:37.938Z,21.34
2023-07-28T00:06:38.151Z,21.34
2023-07-28T00:07:37.914Z,21.34
2023-07-28T00:08:37.903Z,21.34
2023-07-28T00:09:37.890Z,21.34
2023-07-28T00:10:37.912Z,21.34
2023-07-28T00:11:37.956Z,21.34
2023-07-28T00:12:37.940Z,21.34
2023-07-28T00:13:37.946Z,21.34
2023-07-28T00:14:37.986Z,21.33
2023-07-28T00:15:37.967Z,21.36
2023-07-28T00:16:38.376Z,21.33
2023-07-28T00:17:37.995Z,21.28
2023-07-28T00:18:38.009Z,21.28
2023-07-28T00:19:37.985Z,21.30
2023-07-28T00:20:38.020Z,21.30
2023-07-28T00:21:38.000Z,21.30
2023-07-28T00:22:38.028Z,21.30
2023-07-28T00:23:38.045Z,21.30
2023-07-28T00:24:38.086Z,21.31
2023-07-28T00:25:38.067Z,21.30
2023-07-28T00:26:38.096Z,21.30
2023-07-28T00:27:38.112Z,21.30
2023-07-28T00:28:38.149Z,21.30
2023-07-28T00:29:38.130Z,21.28
2023-07-28T00:30:38.164Z,21.28
2023-07-28T00:31:38.121Z,21.30
2023-07-28T00:32:38.181Z,21.30
2023-07-28T00:33:38.201Z,21.30
2023-07-28T00:34:38.194Z,21.30
2023-07-28T00:35:38.157Z,21.30
2023-07-28T00:36:38.331Z,21.30
2023-07-28T00:37:38.179Z,21.28
2023-07-28T00:38:38.217Z,21.31
2023-07-28T00:39:38.233Z,21.31
2023-07-28T00:40:38.265Z,21.33
2023-07-28T00:41:38.283Z,21.33
2023-07-28T00:42:38.305Z,21.30
2023-07-28T00:43:38.338Z,21.28
2023-07-28T00:44:38.362Z,21.27
2023-07-28T00:45:38.405Z,21.26
2023-07-28T00:46:38.373Z,21.26
2023-07-28T00:47:38.418Z,21.28
2023-07-28T00:48:38.396Z,21.26
2023-07-28T00:49:38.429Z,21.27
2023-07-28T00:50:38.469Z,21.27
2023-07-28T00:51:38.432Z,21.26
2023-07-28T00:52:38.464Z,21.24
2023-07-28T00:53:38.488Z,21.24
2023-07-28T00:54:38.480Z,21.28
2023-07-28T00:55:38.450Z,21.26
2023-07-28T00:56:38.456Z,21.24
2023-07-28T00:57:38.474Z,21.24
2023-07-28T00:58:38.507Z,21.22
2023-07-28T00:59:38.487Z,21.24
2023-07-28T01:00:38.517Z,21.27
2023-07-28T01:01:38.588Z,21.26
2023-07-28T01:02:38.621Z,21.24
2023-07-28T01:03:38.577Z,21.24
2023-07-28T01:04:38.626Z,21.21
2023-07-28T01:05:38.609Z,21.18
2023-07-28T01:06:38.654Z,21.18
2023-07-28T01:07:38.621Z,21.19
2023-07-28T01:08:38.658Z,21.21
2023-07-28T01:09:38.629Z,21.18
2023-07-28T01:10:38.655Z,21.21
2023-07-28T01:11:38.683Z,21.19
2023-07-28T01:12:38.774Z,21.19
2023-07-28T01:13:38.735Z,21.21
2023-07-28T01:14:38.744Z,21.19
2023-07-28T01:15:38.839Z,21.19
2023-07-28T01:16:38.793Z,21.21
2023-07-28T01:17:38.826Z,21.21
2023-07-28T01:18:38.825Z,21.22
2023-07-28T01:19:38.916Z,21.22
2023-07-28T01:20:38.865Z,21.22
2023-07-28T01:21:38.893Z,21.22
2023-07-28T01:22:38.947Z,21.18
2023-07-28T01:23:38.935Z,21.18
2023-07-28T01:24:38.926Z,21.18
2023-07-28T01:25:38.976Z,21.19
2023-07-28T01:26:39.294Z,21.18
2023-07-28T01:27:38.947Z,21.19
2023-07-28T01:28:38.956Z,21.18
2023-07-28T01:29:38.995Z,21.18
2023-07-28T01:30:39.039Z,21.19
2023-07-28T01:31:39.067Z,21.19
2023-07-28T01:32:39.033Z,21.19
2023-07-28T01:33:39.007Z,21.19
2023-07-28T01:34:39.023Z,21.18
2023-07-28T01:35:38.996Z,21.19
2023-07-28T01:36:39.014Z,21.19
2023-07-28T01:37:39.031Z,21.19
2023-07-28T01:38:39.071Z,21.19
2023-07-28T01:39:39.047Z,21.18
2023-07-28T01:40:39.032Z,21.19
2023-07-28T01:41:39.032Z,21.18
2023-07-28T01:42:39.070Z,21.18
2023-07-28T01:43:39.047Z,21.19
2023-07-28T01:44:39.075Z,21.21
2023-07-28T01:45:39.067Z,21.21
2023-07-28T01:46:39.058Z,21.22
2023-07-28T01:47:39.117Z,21.21
2023-07-28T01:48:39.101Z,21.22
2023-07-28T01:49:39.143Z,21.19
2023-07-28T01:50:39.119Z,21.19
2023-07-28T01:51:39.147Z,21.18
2023-07-28T01:52:39.164Z,21.18
2023-07-28T01:53:39.195Z,21.18
2023-07-28T01:54:39.243Z,21.18
2023-07-28T01:55:39.230Z,21.21
2023-07-28T01:56:39.239Z,21.18
2023-07-28T01:57:39.251Z,21.18
2023-07-28T01:58:39.270Z,21.16
2023-07-28T01:59:39.280Z,21.16
2023-07-28T02:00:39.289Z,21.16
2023-07-28T02:01:39.357Z,21.13
2023-07-28T02:02:39.330Z,21.13
2023-07-28T02:03:39.321Z,21.15
2023-07-28T02:04:39.444Z,21.16
2023-07-28T02:05:39.362Z,21.16
2023-07-28T02:06:39.394Z,21.16
2023-07-28T02:07:39.424Z,21.16
2023-07-28T02:08:39.440Z,21.18
2023-07-28T02:09:39.462Z,21.16
2023-07-28T02:10:39.510Z,21.18
2023-07-28T02:11:39.486Z,21.18
2023-07-28T02:12:39.501Z,21.18
2023-07-28T02:13:39.521Z,21.16
2023-07-28T02:14:39.542Z,21.15
2023-07-28T02:15:41.306Z,21.15
2023-07-28T02:16:39.582Z,21.16
2023-07-28T02:17:39.566Z,21.18
2023-07-28T02:18:39.568Z,21.15
2023-07-28T02:19:39.580Z,21.13
2023-07-28T02:20:39.593Z,21.16
2023-07-28T02:21:39.599Z,21.13
2023-07-28T02:22:39.630Z,21.15
2023-07-28T02:23:39.661Z,21.15
2023-07-28T02:24:39.651Z,21.16
2023-07-28T02:25:39.636Z,21.18
2023-07-28T02:26:39.645Z,21.18
2023-07-28T02:27:39.600Z,21.18
2023-07-28T02:28:39.633Z,21.18
2023-07-28T02:29:39.656Z,21.19
2023-07-28T02:30:39.703Z,21.19
2023-07-28T02:31:39.666Z,21.19
2023-07-28T02:32:39.715Z,21.18
2023-07-28T02:33:39.693Z,21.19
2023-07-28T02:34:39.718Z,21.21
2023-07-28T02:35:39.695Z,21.18
2023-07-28T02:36:39.713Z,21.19
2023-07-28T02:37:39.733Z,21.19
2023-07-28T02:38:39.757Z,21.21
2023-07-28T02:39:39.784Z,21.24
2023-07-28T02:40:39.820Z,21.22
2023-07-28T02:41:39.829Z,21.24
2023-07-28T02:42:39.857Z,21.22
2023-07-28T02:43:39.826Z,21.22
2023-07-28T02:44:39.856Z,21.22
2023-07-28T02:45:39.899Z,21.21
2023-07-28T02:46:39.955Z,21.21
2023-07-28T02:47:39.903Z,21.21
2023-07-28T02:48:39.881Z,21.21
2023-07-28T02:49:39.904Z,21.24
2023-07-28T02:50:39.927Z,21.21
2023-07-28T02:51:39.948Z,21.22
2023-07-28T02:52:39.977Z,21.24
2023-07-28T02:53:40.001Z,21.21
2023-07-28T02:54:40.016Z,21.21
2023-07-28T02:55:39.996Z,21.19
2023-07-28T02:56:40.055Z,21.21
2023-07-28T02:57:40.028Z,21.21
2023-07-28T02:58:40.064Z,21.19
2023-07-28T02:59:40.008Z,21.18
2023-07-28T03:00:39.984Z,21.18
2023-07-28T03:01:40.043Z,21.19
2023-07-28T03:02:40.113Z,21.18
2023-07-28T03:03:40.069Z,21.19
2023-07-28T03:04:40.045Z,21.18
2023-07-28T03:05:40.068Z,21.21
2023-07-28T03:06:40.083Z,21.19
2023-07-28T03:07:40.106Z,21.21
2023-07-28T03:08:40.150Z,21.21
2023-07-28T03:09:40.131Z,21.21
2023-07-28T03:10:40.114Z,21.22
2023-07-28T03:11:40.144Z,21.21
2023-07-28T03:12:40.169Z,21.19
2023-07-28T03:13:40.160Z,21.19
2023-07-28T03:14:40.209Z,21.21
2023-07-28T03:15:40.174Z,21.22
2023-07-28T03:16:40.215Z,21.21
2023-07-28T03:17:40.251Z,21.19
2023-07-28T03:18:40.200Z,21.21
2023-07-28T03:19:40.220Z,21.19
2023-07-28T03:20:40.256Z,21.18
2023-07-28T03:21:40.536Z,21.19
2023-07-28T03:22:40.251Z,21.19
2023-07-28T03:23:40.265Z,21.19
2023-07-28T03:24:40.305Z,21.19
2023-07-28T03:25:40.312Z,21.21
2023-07-28T03:26:40.333Z,21.19
2023-07-28T03:27:40.399Z,21.22
2023-07-28T03:28:40.390Z,21.21
2023-07-28T03:29:40.414Z,21.19
2023-07-28T03:30:40.498Z,21.19
2023-07-28T03:31:40.524Z,21.18
2023-07-28T03:32:40.457Z,21.18
2023-07-28T03:33:40.424Z,21.19
2023-07-28T03:34:40.438Z,21.19
2023-07-28T03:35:40.425Z,21.19
2023-07-28T03:36:40.465Z,21.19
2023-07-28T03:37:40.500Z,21.18
2023-07-28T03:38:40.497Z,21.18
2023-07-28T03:39:40.469Z,21.18
2023-07-28T03:40:40.493Z,21.18
2023-07-28T03:41:40.519Z,21.16
2023-07-28T03:42:40.588Z,21.18
2023-07-28T03:43:40.575Z,21.18
2023-07-28T03:44:40.569Z,21.18
2023-07-28T03:45:40.614Z,21.18
2023-07-28T03:46:40.680Z,21.16
2023-07-28T03:47:40.672Z,21.16
2023-07-28T03:48:40.607Z,21.18
2023-07-28T03:49:40.627Z,21.19
2023-07-28T03:50:40.659Z,21.21
2023-07-28T03:51:40.648Z,21.21
2023-07-28T03:52:40.666Z,21.21
2023-07-28T03:53:40.656Z,21.19
2023-07-28T03:54:40.674Z,21.19
2023-07-28T03:55:40.695Z,21.22
2023-07-28T03:56:40.719Z,21.21
2023-07-28T03:57:40.754Z,21.21
2023-07-28T03:58:40.730Z,21.19
2023-07-28T03:59:40.770Z,21.19
2023-07-28T04:00:40.779Z,21.18
2023-07-28T04:01:40.889Z,21.19
2023-07-28T04:02:40.884Z,21.19
2023-07-28T04:03:40.826Z,21.19
2023-07-28T04:04:40.887Z,21.19
2023-07-28T04:05:40.871Z,21.21
2023-07-28T04:06:40.913Z,21.19
2023-07-28T04:07:40.894Z,21.19
2023-07-28T04:08:40.930Z,21.18
2023-07-28T04:09:40.967Z,21.21
2023-07-28T04:10:40.991Z,21.21
2023-07-28T04:11:41.019Z,21.24
2023-07-28T04:12:41.019Z,21.26
2023-07-28T04:13:41.006Z,21.26
2023-07-28T04:14:41.066Z,21.26
2023-07-28T04:15:41.057Z,21.26
2023-07-28T04:16:41.070Z,21.24
2023-07-28T04:17:41.153Z,21.24
2023-07-28T04:18:41.140Z,21.24
2023-07-28T04:19:41.120Z,21.27
2023-07-28T04:20:41.140Z,21.26
2023-07-28T04:21:42.090Z,21.26
2023-07-28T04:22:41.182Z,21.27
2023-07-28T04:23:41.216Z,21.28
2023-07-28T04:24:41.228Z,21.26
2023-07-28T04:25:41.233Z,21.27
2023-07-28T04:26:41.212Z,21.26
2023-07-28T04:27:41.249Z,21.27
2023-07-28T04:28:41.314Z,21.27
2023-07-28T04:29:41.296Z,21.26
2023-07-28T04:30:41.325Z,21.26
2023-07-28T04:31:41.395Z,21.26
2023-07-28T04:32:41.485Z,21.26
2023-07-28T04:33:41.371Z,21.24
2023-07-28T04:34:41.431Z,21.24
2023-07-28T04:35:41.415Z,21.27
2023-07-28T04:36:41.407Z,21.26
2023-07-28T04:37:41.451Z,21.26
2023-07-28T04:38:41.456Z,21.27
2023-07-28T04:39:41.483Z,21.30
2023-07-28T04:40:41.467Z,21.30
2023-07-28T04:41:41.502Z,21.28
2023-07-28T04:42:41.494Z,21.30
2023-07-28T04:43:41.491Z,21.33
2023-07-28T04:44:41.522Z,21.34
2023-07-28T04:45:41.588Z,21.38
2023-07-28T04:46:41.549Z,21.40
2023-07-28T04:47:41.599Z,21.43
2023-07-28T04:48:41.608Z,21.42
2023-07-28T04:49:41.597Z,21.45
2023-07-28T04:50:41.666Z,21.43
2023-07-28T04:51:41.633Z,21.45
2023-07-28T04:52:41.618Z,21.49
2023-07-28T04:53:41.604Z,21.52
2023-07-28T04:54:41.629Z,21.53
2023-07-28T04:55:41.658Z,21.51
2023-07-28T04:56:41.644Z,21.53
2023-07-28T04:57:41.681Z,21.59
2023-07-28T04:58:41.692Z,21.58
2023-07-28T04:59:41.714Z,21.56
2023-07-28T05:02:07.813Z,21.52
2023-07-28T05:03:07.702Z,21.49
2023-07-28T05:04:07.786Z,21.51
2023-07-28T05:05:07.732Z,21.48
2023-07-28T05:06:07.781Z,21.48
2023-07-28T05:07:07.775Z,21.51
2023-07-28T05:08:07.800Z,21.48
2023-07-28T05:09:07.825Z,21.46
2023-07-28T05:10:07.847Z,21.48
2023-07-28T05:11:07.890Z,21.51
2023-07-28T05:12:07.875Z,21.52
2023-07-28T05:13:07.900Z,21.51
2023-07-28T05:14:07.923Z,21.51
2023-07-28T05:15:07.952Z,21.51
2023-07-28T05:16:08.024Z,21.51
2023-07-28T05:17:08.077Z,21.49
2023-07-28T05:18:08.022Z,21.46
2023-07-28T05:19:08.032Z,21.45
2023-07-28T05:20:08.034Z,21.45
2023-07-28T05:21:08.072Z,21.45
2023-07-28T05:22:08.090Z,21.48
2023-07-28T05:23:08.084Z,21.49
2023-07-28T05:24:08.116Z,21.46
2023-07-28T05:25:08.139Z,21.45
2023-07-28T05:26:08.154Z,21.40
2023-07-28T05:27:08.155Z,21.38
2023-07-28T05:28:08.202Z,21.40
2023-07-28T05:29:08.147Z,21.42
2023-07-28T05:30:08.142Z,21.43
2023-07-28T05:31:08.149Z,21.43
2023-07-28T05:32:08.148Z,21.45
2023-07-28T05:33:08.182Z,21.48
2023-07-28T05:34:08.212Z,21.48
2023-07-28T05:35:08.195Z,21.48
2023-07-28T05:36:08.227Z,21.49
2023-07-28T05:37:08.261Z,21.48
2023-07-28T05:38:08.317Z,21.45
2023-07-28T05:39:08.302Z,21.45
2023-07-28T05:40:08.305Z,21.49
2023-07-28T05:41:08.303Z,21.53
2023-07-28T05:42:08.300Z,21.58
2023-07-28T05:43:08.582Z,21.63
2023-07-28T05:44:08.300Z,21.61
2023-07-28T05:45:08.373Z,21.67
2023-07-28T05:46:08.331Z,21.71
2023-07-28T05:47:08.349Z,21.74
2023-07-28T05:48:08.451Z,21.74
2023-07-28T05:49:08.366Z,21.77
2023-07-28T05:50:08.350Z,21.77
2023-07-28T05:51:08.382Z,21.75
2023-07-28T05:52:08.413Z,21.75
2023-07-28T05:53:08.448Z,21.79
2023-07-28T05:54:08.484Z,21.81
2023-07-28T05:55:08.446Z,21.79
2023-07-28T05:56:08.442Z,21.81
2023-07-28T05:57:08.473Z,21.82
2023-07-28T05:58:08.505Z,21.89
2023-07-28T05:59:08.493Z,21.91
2023-07-28T06:00:08.532Z,21.96
2023-07-28T06:01:08.600Z,21.98
2023-07-28T06:02:08.583Z,22.02
2023-07-28T06:03:08.690Z,22.02
2023-07-28T06:04:08.611Z,22.08
2023-07-28T06:05:08.636Z,22.14
2023-07-28T06:06:08.665Z,22.26
2023-07-28T06:07:08.710Z,22.23
2023-07-28T06:08:08.703Z,22.26
2023-07-28T06:09:08.726Z,22.30
2023-07-28T06:10:10.637Z,22.44
2023-07-28T06:11:08.750Z,22.52
2023-07-28T06:12:08.782Z,22.51
2023-07-28T06:13:08.766Z,22.56
2023-07-28T06:14:08.796Z,22.54
2023-07-28T06:15:08.838Z,22.52
2023-07-28T06:16:08.850Z,22.49
2023-07-28T06:17:08.863Z,22.49
2023-07-28T06:18:08.897Z,22.48
2023-07-28T06:19:08.920Z,22.49
2023-07-28T06:20:08.966Z,22.48
2023-07-28T06:21:08.945Z,22.48
2023-07-28T06:22:08.938Z,22.57
2023-07-28T06:23:08.969Z,22.57
2023-07-28T06:24:08.978Z,22.54
2023-07-28T06:25:09.012Z,22.52
2023-07-28T06:26:09.082Z,22.46
2023-07-28T06:27:09.088Z,22.48
2023-07-28T06:28:09.135Z,22.44
2023-07-28T06:29:09.143Z,22.38
2023-07-28T06:30:09.099Z,22.42
2023-07-28T06:31:09.158Z,22.45
2023-07-28T06:32:09.143Z,22.46
2023-07-28T06:33:09.165Z,22.46
2023-07-28T06:34:09.198Z,22.44
2023-07-28T06:35:09.182Z,22.45
2023-07-28T06:36:09.235Z,22.46
2023-07-28T06:37:09.235Z,22.51
2023-07-28T06:38:09.262Z,22.52
2023-07-28T06:39:09.293Z,22.51
2023-07-28T06:40:09.313Z,22.57
2023-07-28T06:41:09.350Z,22.59
2023-07-28T06:42:09.398Z,22.61
2023-07-28T06:43:09.381Z,22.66
2023-07-28T06:44:09.512Z,22.64
2023-07-28T06:45:09.409Z,22.63
2023-07-28T06:46:09.407Z,22.61
2023-07-28T06:47:09.410Z,22.61
2023-07-28T06:48:09.402Z,22.57
2023-07-28T06:49:09.449Z,22.54
2023-07-28T06:50:09.456Z,22.54
2023-07-28T06:51:09.450Z,22.56
2023-07-28T06:52:09.462Z,22.52
2023-07-28T06:53:09.502Z,22.56
2023-07-28T06:54:09.492Z,22.57
2023-07-28T06:55:09.500Z,22.61
2023-07-28T06:56:09.473Z,22.61
2023-07-28T06:57:09.513Z,22.61
2023-07-28T06:58:09.522Z,22.69
2023-07-28T06:59:15.221Z,22.66
2023-07-28T07:00:09.513Z,22.70
2023-07-28T07:01:09.574Z,22.74
2023-07-28T07:02:09.540Z,22.79
2023-07-28T07:03:09.570Z,22.82
2023-07-28T07:04:09.629Z,22.84
2023-07-28T07:05:09.719Z,22.82
2023-07-28T07:06:09.655Z,22.78
2023-07-28T07:07:09.634Z,22.75
2023-07-28T07:08:09.683Z,22.79
2023-07-28T07:09:09.675Z,22.72
2023-07-28T07:10:09.663Z,22.67
2023-07-28T07:11:09.691Z,22.67
2023-07-28T07:12:09.718Z,22.60
2023-07-28T07:13:09.750Z,22.60
2023-07-28T07:14:09.770Z,22.51
2023-07-28T07:15:09.747Z,22.54
2023-07-28T07:16:11.107Z,22.54
2023-07-28T07:17:09.776Z,22.56
2023-07-28T07:18:09.755Z,22.69
2023-07-28T07:19:09.835Z,22.74
2023-07-28T07:20:09.807Z,22.72
2023-07-28T07:21:09.830Z,22.70
2023-07-28T07:22:09.816Z,22.72
2023-07-28T07:23:09.838Z,22.72
2023-07-28T07:24:09.841Z,22.63
2023-07-28T07:25:09.899Z,22.66
2023-07-28T07:26:09.876Z,22.76
2023-07-28T07:27:09.898Z,22.81
2023-07-28T07:28:09.946Z,22.89
2023-07-28T07:29:09.933Z,22.94
2023-07-28T07:30:09.993Z,22.94
2023-07-28T07:31:10.026Z,22.99
2023-07-28T07:32:09.985Z,22.88
2023-07-28T07:33:10.013Z,22.85
2023-07-28T07:34:10.034Z,22.75
2023-07-28T07:35:10.063Z,22.56
2023-07-28T07:36:10.098Z,22.48
2023-07-28T07:37:10.132Z,22.39
2023-07-28T07:38:10.134Z,22.33
2023-07-28T07:39:10.137Z,22.21
2023-07-28T07:40:10.127Z,22.12
2023-07-28T07:41:10.130Z,22.23
2023-07-28T07:42:10.206Z,22.36
2023-07-28T07:43:10.191Z,22.46
2023-07-28T07:44:10.178Z,22.46
2023-07-28T07:45:10.176Z,22.52
2023-07-28T07:46:10.284Z,22.59
2023-07-28T07:47:10.240Z,22.61
2023-07-28T07:48:10.268Z,22.66
2023-07-28T07:49:10.307Z,22.66
2023-07-28T07:50:10.328Z,22.69
2023-07-28T07:51:10.358Z,22.67
2023-07-28T07:52:10.366Z,22.74
2023-07-28T07:53:10.372Z,22.74
2023-07-28T07:54:10.360Z,22.76
2023-07-28T07:55:10.357Z,22.78
2023-07-28T07:56:10.395Z,22.78
2023-07-28T07:57:10.405Z,22.79
2023-07-28T07:58:10.396Z,22.79
2023-07-28T07:59:10.399Z,22.78
2023-07-28T08:00:10.388Z,22.75
2023-07-28T08:01:10.482Z,22.76
2023-07-28T08:02:10.437Z,22.84
2023-07-28T08:03:10.451Z,22.74
2023-07-28T08:04:10.429Z,22.76
2023-07-28T08:05:10.436Z,22.85
2023-07-28T08:06:10.470Z,22.89
2023-07-28T08:07:10.505Z,22.89
2023-07-28T08:08:10.507Z,22.82
2023-07-28T08:09:10.488Z,22.89
2023-07-28T08:10:10.498Z,22.84
2023-07-28T08:11:10.492Z,22.93
2023-07-28T08:12:10.490Z,22.97
2023-07-28T08:13:10.520Z,22.99
2023-07-28T08:14:10.500Z,22.99
2023-07-28T08:15:10.627Z,22.96
2023-07-28T08:16:10.668Z,22.97
2023-07-28T08:17:10.547Z,22.99
2023-07-28T08:18:10.684Z,22.86
2023-07-28T08:19:10.573Z,22.86
2023-07-28T08:20:10.576Z,22.94
2023-07-28T08:21:10.592Z,23.00
2023-07-28T08:22:10.579Z,22.91
2023-07-28T08:23:10.585Z,22.91
2023-07-28T08:24:10.604Z,22.94
2023-07-28T08:25:10.638Z,23.03
2023-07-28T08:26:10.614Z,23.04
2023-07-28T08:27:10.606Z,23.07
2023-07-28T08:28:15.859Z,23.06
2023-07-28T08:29:10.647Z,23.03
2023-07-28T08:30:10.646Z,23.12
2023-07-28T08:31:10.674Z,23.16
2023-07-28T08:32:10.634Z,23.25
2023-07-28T08:33:10.707Z,23.31
2023-07-28T08:34:10.676Z,23.32
2023-07-28T08:35:10.625Z,23.39
2023-07-28T08:36:10.689Z,23.39
2023-07-28T08:37:10.636Z,23.37
2023-07-28T08:38:10.625Z,23.34
2023-07-28T08:39:10.641Z,23.41
2023-07-28T08:40:10.617Z,23.49
2023-07-28T08:41:10.635Z,23.45
2023-07-28T08:42:10.637Z,23.42
2023-07-28T08:43:10.732Z,23.57
2023-07-28T08:44:10.681Z,23.59
2023-07-28T08:45:10.717Z,23.52
2023-07-28T08:46:10.811Z,23.41
2023-07-28T08:47:10.787Z,23.32
2023-07-28T08:48:10.966Z,23.12
2023-07-28T08:49:10.822Z,23.04
2023-07-28T08:50:10.890Z,23.07
2023-07-28T08:51:10.877Z,23.04
2023-07-28T08:52:10.922Z,22.99
2023-07-28T08:53:10.933Z,22.99
2023-07-28T08:54:10.905Z,23.00
2023-07-28T08:55:11.113Z,23.03
2023-07-28T08:56:10.950Z,22.99
2023-07-28T08:57:10.933Z,22.96
2023-07-28T08:58:11.838Z,22.89
2023-07-28T08:59:10.959Z,22.88
2023-07-28T09:00:10.959Z,22.93
2023-07-28T09:01:10.996Z,23.04
2023-07-28T09:02:10.971Z,23.04
2023-07-28T09:03:11.013Z,23.06
2023-07-28T09:04:10.951Z,23.06
2023-07-28T09:05:10.973Z,23.07
2023-07-28T09:06:11.045Z,23.12
2023-07-28T09:07:11.045Z,23.21
2023-07-28T09:08:11.376Z,23.19
2023-07-28T09:09:11.029Z,23.06
2023-07-28T09:10:11.053Z,22.99
2023-07-28T09:11:11.090Z,23.00
2023-07-28T09:12:11.103Z,23.06
2023-07-28T09:13:11.114Z,23.23
2023-07-28T09:14:11.120Z,23.32
2023-07-28T09:15:11.136Z,23.42
2023-07-28T09:16:11.210Z,23.54
2023-07-28T09:17:11.203Z,23.69
2023-07-28T09:18:11.189Z,23.79
2023-07-28T09:19:11.216Z,23.81
2023-07-28T09:20:11.205Z,23.89
2023-07-28T09:21:11.191Z,23.94
2023-07-28T09:22:11.216Z,24.06
2023-07-28T09:23:11.199Z,24.14
2023-07-28T09:24:11.198Z,24.23
2023-07-28T09:25:11.220Z,24.30
2023-07-28T09:26:11.235Z,24.41
2023-07-28T09:27:11.269Z,24.46
2023-07-28T09:28:11.374Z,24.49
2023-07-28T09:29:11.313Z,24.51
2023-07-28T09:30:11.253Z,24.52
2023-07-28T09:31:11.379Z,24.45
2023-07-28T09:32:11.228Z,24.42
2023-07-28T09:33:11.253Z,24.44
2023-07-28T09:34:11.255Z,24.51
2023-07-28T09:35:11.602Z,24.49
2023-07-28T09:36:11.284Z,24.44
2023-07-28T09:37:11.267Z,24.44
2023-07-28T09:38:11.312Z,24.44
2023-07-28T09:39:11.283Z,24.51
2023-07-28T09:40:11.325Z,24.53
2023-07-28T09:41:11.308Z,24.44
2023-07-28T09:42:11.347Z,24.33
2023-07-28T09:43:11.339Z,24.18
2023-07-28T09:44:11.329Z,24.19
2023-07-28T09:45:22.434Z,24.26
2023-07-28T09:46:11.415Z,24.29
2023-07-28T09:47:11.354Z,24.39
2023-07-28T09:48:11.377Z,24.44
2023-07-28T09:49:11.388Z,24.39
2023-07-28T09:50:11.411Z,24.29
2023-07-28T09:51:11.420Z,24.26
2023-07-28T09:52:11.426Z,24.29
2023-07-28T09:53:11.445Z,24.34
2023-07-28T09:54:11.457Z,24.31
2023-07-28T09:55:11.434Z,24.37
2023-07-28T09:56:11.464Z,24.44
2023-07-28T09:57:11.453Z,24.41
2023-07-28T09:58:11.480Z,24.45
2023-07-28T09:59:11.513Z,24.53
2023-07-28T10:00:11.529Z,24.53
2023-07-28T10:01:11.559Z,24.56
2023-07-28T10:02:11.575Z,24.49
2023-07-28T10:03:11.707Z,24.51
2023-07-28T10:04:11.551Z,24.60
2023-07-28T10:05:11.538Z,24.74
2023-07-28T10:06:11.527Z,24.86
2023-07-28T10:07:11.579Z,24.89
2023-07-28T10:08:11.598Z,24.87
2023-07-28T10:09:11.616Z,24.86
2023-07-28T10:10:11.646Z,24.79
2023-07-28T10:11:11.616Z,24.86
2023-07-28T10:12:11.617Z,24.86
2023-07-28T10:13:11.641Z,24.89
2023-07-28T10:14:12.718Z,24.92
2023-07-28T10:15:11.637Z,24.87
2023-07-28T10:16:11.683Z,24.83
2023-07-28T10:17:11.645Z,24.84
2023-07-28T10:18:11.693Z,24.92
2023-07-28T10:19:11.674Z,25.02
2023-07-28T10:21:11.664Z,25.16
2023-07-28T10:22:11.653Z,25.08
2023-07-28T10:23:11.641Z,25.02
2023-07-28T10:24:11.651Z,24.92
2023-07-28T10:25:11.654Z,24.80
2023-07-28T10:26:11.739Z,24.64
2023-07-28T10:27:11.677Z,24.56
2023-07-28T10:28:11.714Z,24.51
2023-07-28T10:29:11.685Z,24.37
2023-07-28T10:30:11.692Z,24.39
2023-07-28T10:31:11.713Z,24.44
2023-07-28T10:32:11.717Z,24.48
2023-07-28T10:33:11.696Z,24.60
2023-07-28T10:34:11.723Z,24.61
2023-07-28T10:35:11.721Z,24.66
2023-07-28T10:36:11.742Z,24.61
2023-07-28T10:37:11.769Z,24.59
2023-07-28T10:38:11.775Z,24.61
2023-07-28T10:39:12.370Z,24.66
2023-07-28T10:40:11.820Z,24.74
2023-07-28T10:41:11.812Z,24.66
2023-07-28T10:42:13.492Z,24.75
2023-07-28T10:43:11.832Z,24.97
2023-07-28T10:44:11.867Z,25.09
2023-07-28T10:45:11.868Z,25.19
2023-07-28T10:46:11.943Z,25.24
2023-07-28T10:47:11.874Z,25.20
2023-07-28T10:48:11.860Z,25.27
2023-07-28T10:49:11.889Z,25.41
2023-07-28T10:50:12.875Z,25.56
2023-07-28T10:51:18.871Z,25.69
2023-07-28T10:52:14.146Z,25.79
2023-07-28T10:53:11.956Z,25.85
2023-07-28T10:54:11.996Z,25.91
2023-07-28T10:55:11.993Z,25.98
2023-07-28T10:56:12.286Z,26.04
2023-07-28T10:57:12.058Z,26.06
2023-07-28T10:58:12.915Z,26.06
2023-07-28T10:59:12.011Z,26.04
2023-07-28T11:00:11.993Z,26.06
2023-07-28T11:01:12.056Z,25.93
2023-07-28T11:02:17.189Z,25.85
2023-07-28T11:03:12.169Z,25.86
2023-07-28T11:04:12.132Z,25.96
2023-07-28T11:05:12.083Z,26.01
2023-07-28T11:06:12.072Z,25.96
2023-07-28T11:07:12.097Z,25.96
2023-07-28T11:08:12.092Z,25.85
2023-07-28T11:09:12.100Z,25.75
2023-07-28T11:10:12.094Z,25.67
2023-07-28T11:11:12.076Z,25.60
2023-07-28T11:12:12.178Z,25.56
2023-07-28T11:13:26.552Z,25.60
2023-07-28T11:14:12.119Z,25.69
2023-07-28T11:15:12.115Z,25.82
2023-07-28T11:16:12.237Z,25.93
2023-07-28T11:17:12.163Z,25.97
2023-07-28T11:18:12.208Z,25.98
2023-07-28T11:19:12.173Z,25.83
2023-07-28T11:20:12.166Z,25.59
2023-07-28T11:21:12.147Z,25.61
2023-07-28T11:22:12.143Z,25.60
2023-07-28T11:23:12.185Z,25.63
2023-07-28T11:24:12.213Z,25.63
2023-07-28T11:25:12.197Z,25.66
2023-07-28T11:26:12.191Z,25.74
2023-07-28T11:27:12.191Z,25.86
2023-07-28T11:28:12.221Z,25.93
2023-07-28T11:29:12.211Z,26.03
2023-07-28T11:30:12.314Z,26.13
2023-07-28T11:31:12.240Z,26.21
2023-07-28T11:32:12.213Z,26.32
2023-07-28T11:33:12.209Z,26.42
2023-07-28T11:34:12.203Z,26.51
2023-07-28T11:35:12.227Z,26.53
2023-07-28T11:36:12.231Z,26.59
2023-07-28T11:37:12.210Z,26.56
2023-07-28T11:38:12.237Z,26.47
2023-07-28T11:39:12.278Z,26.49
2023-07-28T11:40:12.497Z,26.56
2023-07-28T11:41:12.224Z,26.66
2023-07-28T11:42:12.211Z,26.66
2023-07-28T11:43:12.210Z,26.66
2023-07-28T11:44:12.196Z,26.66
2023-07-28T11:45:12.230Z,26.42
2023-07-28T11:46:12.255Z,26.00
2023-07-28T11:47:12.244Z,25.74
2023-07-28T11:48:12.357Z,25.57
2023-07-28T11:49:12.234Z,25.45
2023-07-28T11:50:12.220Z,25.35
2023-07-28T11:51:12.255Z,25.29
2023-07-28T11:52:12.254Z,25.23
2023-07-28T11:53:12.236Z,25.17
2023-07-28T11:54:12.221Z,25.12
2023-07-28T11:55:12.243Z,25.09
2023-07-28T11:56:12.281Z,25.08
2023-07-28T11:57:14.260Z,25.04
2023-07-28T11:58:12.253Z,25.04
2023-07-28T11:59:12.271Z,25.04
2023-07-28T12:00:12.305Z,24.99
2023-07-28T12:01:12.301Z,24.99
2023-07-28T12:03:12.546Z,24.94
2023-07-28T12:05:06.190Z,24.93
2023-07-28T12:05:12.480Z,24.93
2023-07-28T12:06:14.285Z,24.92
2023-07-28T12:07:12.346Z,24.90
2023-07-28T12:08:12.351Z,24.92
2023-07-28T12:09:12.323Z,25.19
2023-07-28T12:10:12.328Z,25.71
2023-07-28T12:12:24.521Z,26.13
2023-07-28T12:19:12.429Z,26.54
2023-07-28T12:20:12.946Z,26.65
2023-07-28T12:21:12.339Z,26.64
2023-07-28T12:22:12.327Z,26.65
2023-07-28T12:24:12.335Z,26.72
2023-07-28T12:25:12.352Z,26.81
2023-07-28T12:26:12.353Z,26.84
2023-07-28T12:27:12.932Z,26.81
2023-07-28T12:29:12.427Z,26.88
2023-07-28T12:31:12.443Z,27.02
2023-07-28T12:32:23.283Z,27.09
2023-07-28T12:34:12.833Z,27.13
2023-07-28T12:35:14.819Z,27.15
2023-07-28T12:37:12.414Z,27.16
2023-07-28T12:41:12.500Z,27.20
2023-07-28T12:42:14.513Z,27.27
2023-07-28T12:44:15.959Z,27.42
2023-07-28T12:46:12.536Z,27.55
2023-07-28T12:47:12.495Z,27.63
2023-07-28T12:48:20.516Z,27.68
2023-07-28T12:49:21.499Z,27.69
2023-07-28T12:51:12.501Z,27.80
2023-07-28T12:52:19.459Z,27.87
2023-07-28T12:53:16.729Z,27.90
2023-07-28T12:54:12.500Z,27.95
2023-07-28T12:55:15.726Z,27.98
2023-07-28T12:56:12.508Z,28.01
2023-07-28T12:57:12.536Z,28.05
2023-07-28T13:01:12.591Z,28.03
2023-07-28T13:02:12.614Z,28.01
2023-07-28T13:03:12.720Z,28.01
2023-07-28T13:04:12.624Z,27.98
2023-07-28T13:05:12.537Z,27.95
2023-07-28T13:06:12.574Z,27.98
2023-07-28T13:08:12.560Z,28.03
2023-07-28T13:11:17.100Z,28.13
2023-07-28T13:13:14.694Z,28.08
2023-07-28T13:14:12.599Z,27.98
2023-07-28T13:15:12.664Z,27.90
2023-07-28T13:16:13.208Z,27.91
2023-07-28T13:17:12.599Z,27.98
2023-07-28T13:18:12.583Z,28.05
2023-07-28T13:19:12.576Z,28.13
2023-07-28T13:20:12.603Z,28.20
2023-07-28T13:21:12.587Z,28.30